Time;durP1;ratioP1;P1;durP2;ratioP2;P2;SDS_P1;SDS_P2;PMS_P1;PMS_P2;Temp;Humidity;BMP_temperature;BMP_pressure;BME280_temperature;BME280_humidity;BME280_pressure;Samples;Min_cycle;Max_cycle;Signal;HPM_P1;HPM_P2
2023/05/15 00:02:05;;;;;;;31.63;20.40;;;;;;;11.92;90.12;101436.75;4991508;28;20022;-71
2023/05/15 00:04:31;;;;;;;31.33;18.65;;;;;;;11.88;90.34;101433.34;4992679;28;20504;-72
2023/05/15 00:06:56;;;;;;;33.70;18.75;;;;;;;11.84;89.79;101430.94;4991493;28;20022;-71
2023/05/15 00:09:22;;;;;;;35.28;18.83;;;;;;;11.86;89.33;101431.72;4990157;28;20462;-71
2023/05/15 00:11:47;;;;;;;31.65;19.27;;;;;;;11.88;89.40;101419.72;4992445;28;20034;-71
2023/05/15 00:14:13;;;;;;;31.13;18.85;;;;;;;11.85;90.29;101416.34;4991755;28;20176;-71
2023/05/15 00:16:38;;;;;;;35.42;18.60;;;;;;;11.81;89.64;101421.09;4990469;28;20133;-71
2023/05/15 00:19:03;;;;;;;28.38;18.45;;;;;;;11.77;89.68;101416.81;5004076;28;20034;-71
2023/05/15 00:21:29;;;;;;;31.13;19.08;;;;;;;11.75;90.59;101421.53;4992137;28;20089;-71
2023/05/15 00:23:57;;;;;;;30.02;18.85;;;;;;;11.71;90.14;101423.56;4993045;28;20061;-71
2023/05/15 00:26:23;;;;;;;33.13;19.48;;;;;;;11.67;90.55;101416.59;4996562;28;20421;-71
2023/05/15 00:28:49;;;;;;;34.53;20.80;;;;;;;11.64;90.00;101418.63;4992167;28;20049;-71
2023/05/15 00:31:15;;;;;;;30.90;19.73;;;;;;;11.62;89.92;101409.69;4990169;28;20120;-71
2023/05/15 00:33:41;;;;;;;33.25;20.27;;;;;;;11.57;90.16;101410.00;4989782;28;20137;-71
2023/05/15 00:36:08;;;;;;;32.30;20.70;;;;;;;11.52;90.10;101414.91;4991325;28;20036;-71
2023/05/15 00:38:34;;;;;;;36.70;21.15;;;;;;;11.46;91.06;101418.03;5005783;28;20141;-71
2023/05/15 00:41:05;;;;;;;34.13;20.38;;;;;;;11.46;89.95;101409.84;4991454;28;20129;-71
2023/05/15 00:43:30;;;;;;;35.40;20.90;;;;;;;11.40;90.03;101408.41;5006319;28;20065;-71
2023/05/15 00:45:56;;;;;;;33.58;19.50;;;;;;;11.35;89.42;101401.53;4991628;28;20483;-71
2023/05/15 00:48:24;;;;;;;37.03;19.60;;;;;;;11.37;89.70;101400.44;4990965;28;20092;-70
2023/05/15 00:50:50;;;;;;;33.90;20.23;;;;;;;11.35;89.77;101406.97;4991297;28;20414;-71
2023/05/15 00:53:16;;;;;;;35.08;20.17;;;;;;;11.31;91.00;101405.44;4990822;28;20343;-71
2023/05/15 00:55:45;;;;;;;35.60;20.92;;;;;;;11.31;89.81;101406.28;5003270;28;20030;-71
2023/05/15 00:58:11;;;;;;;32.85;19.77;;;;;;;11.32;90.09;101402.59;4990962;28;20042;-71
2023/05/15 01:00:37;;;;;;;36.13;20.35;;;;;;;11.29;89.19;101408.25;4991144;28;20516;-71
2023/05/15 01:03:04;;;;;;;32.55;20.73;;;;;;;11.19;90.89;101397.09;4993510;28;20113;-71
2023/05/15 01:05:30;;;;;;;37.75;20.67;;;;;;;11.09;89.91;101382.31;4989578;28;20057;-71
2023/05/15 01:08:07;;;;;;;33.90;19.83;;;;;;;11.15;89.56;101400.13;4991097;28;20526;-70
2023/05/15 01:10:34;;;;;;;35.50;20.52;;;;;;;11.13;90.41;101389.31;5001153;28;20491;-71
2023/05/15 01:13:01;;;;;;;34.95;20.27;;;;;;;11.10;89.88;101391.41;4991344;28;20057;-72
2023/05/15 01:15:26;;;;;;;38.03;20.45;;;;;;;11.11;89.63;101391.28;4989387;28;20054;-71
2023/05/15 01:17:51;;;;;;;35.42;20.05;;;;;;;11.10;89.82;101391.41;4990850;28;20045;-71
2023/05/15 01:20:19;;;;;;;38.75;21.33;;;;;;;11.04;89.54;101389.06;4990720;28;20035;-71
2023/05/15 01:23:10;;;;;;;34.53;20.35;;;;;;;11.04;89.63;101395.38;4988695;28;20091;-72
2023/05/15 01:26:20;;;;;;;35.17;21.05;;;;;;;11.03;89.77;101390.91;4993830;28;20034;-71
2023/05/15 01:28:56;;;;;;;39.13;20.77;;;;;;;10.98;89.87;101390.34;4980385;28;20053;-71
2023/05/15 01:31:25;;;;;;;35.00;20.58;;;;;;;10.95;90.14;101387.81;5008267;28;20085;-71
2023/05/15 01:33:54;;;;;;;34.20;20.55;;;;;;;10.92;90.23;101390.75;4988410;28;20440;-71
2023/05/15 01:36:30;;;;;;;39.13;22.35;;;;;;;10.92;90.32;101393.47;4988373;28;20153;-71
2023/05/15 01:39:02;;;;;;;37.92;22.42;;;;;;;10.89;89.82;101386.38;4997701;28;20041;-71
2023/05/15 01:41:34;;;;;;;37.50;21.55;;;;;;;10.88;90.28;101381.03;4990448;28;20069;-71
2023/05/15 01:44:14;;;;;;;37.15;22.08;;;;;;;10.84;90.53;101380.34;4989213;28;20517;-72
2023/05/15 01:46:44;;;;;;;35.35;21.45;;;;;;;10.81;90.17;101385.13;4988880;28;20112;-71
2023/05/15 01:49:15;;;;;;;38.85;21.67;;;;;;;10.75;90.53;101380.94;4988709;28;20030;-71
2023/05/15 01:51:43;;;;;;;40.20;23.35;;;;;;;10.69;90.50;101375.91;4989841;28;20034;-71
2023/05/15 01:54:09;;;;;;;41.13;23.13;;;;;;;10.66;91.46;101374.25;4989796;28;20022;-70
2023/05/15 01:56:36;;;;;;;37.67;20.92;;;;;;;10.60;91.84;101371.94;5000946;28;20227;-71
2023/05/15 01:59:04;;;;;;;37.72;22.52;;;;;;;10.56;91.60;101364.06;5006457;28;20041;-71
2023/05/15 02:01:31;;;;;;;36.20;22.75;;;;;;;10.54;91.87;101368.72;5005773;28;20419;-71
2023/05/15 02:03:58;;;;;;;40.95;21.17;;;;;;;10.54;91.38;101366.00;4990101;28;20398;-71
2023/05/15 02:06:24;;;;;;;40.72;20.95;;;;;;;10.50;91.99;101362.63;4988390;28;20478;-71
2023/05/15 02:08:52;;;;;;;41.67;21.98;;;;;;;10.48;91.62;101370.84;4988018;28;20030;-71
2023/05/15 02:11:19;;;;;;;37.13;22.25;;;;;;;10.45;91.81;101362.03;4988397;28;20037;-71
2023/05/15 02:13:45;;;;;;;41.22;22.42;;;;;;;10.51;90.93;101363.47;4989775;28;20033;-71
2023/05/15 02:16:10;;;;;;;41.45;21.40;;;;;;;10.52;91.45;101365.22;5000016;28;20018;-71
2023/05/15 02:18:36;;;;;;;40.90;22.15;;;;;;;10.50;91.31;101362.63;4989367;28;20396;-71
2023/05/15 02:21:02;;;;;;;36.00;21.42;;;;;;;10.52;90.83;101366.09;4989184;28;20390;-71
2023/05/15 02:23:28;;;;;;;39.17;20.50;;;;;;;10.50;90.73;101359.03;4990074;28;20057;-71
2023/05/15 02:26:07;;;;;;;40.33;21.95;;;;;;;10.50;91.02;101362.63;4988981;28;20054;-71
2023/05/15 02:29:02;;;;;;;41.50;23.33;;;;;;;10.52;91.23;101359.78;4989455;28;20362;-71
2023/05/15 02:31:40;;;;;;;33.95;21.02;;;;;;;10.45;91.20;101365.63;4988475;28;20585;-71
2023/05/15 02:34:19;;;;;;;41.53;22.85;;;;;;;10.48;91.16;101375.41;4989185;28;20053;-71
2023/05/15 02:36:47;;;;;;;42.85;23.52;;;;;;;10.37;92.73;101373.38;4988439;28;20515;-71
2023/05/15 02:39:16;;;;;;;43.03;23.80;;;;;;;10.33;92.51;101382.72;4988429;28;20121;-71
2023/05/15 02:41:43;;;;;;;41.30;22.90;;;;;;;10.32;91.51;101378.25;5003835;28;20625;-70
2023/05/15 02:44:10;;;;;;;42.80;24.00;;;;;;;10.31;92.60;101381.94;4989237;28;20220;-71
2023/05/15 02:46:37;;;;;;;45.72;24.52;;;;;;;10.30;92.32;101388.31;4989218;28;20038;-70
2023/05/15 02:49:02;;;;;;;47.30;24.70;;;;;;;10.29;92.00;101389.31;4994538;28;20017;-71
2023/05/15 02:51:29;;;;;;;49.53;24.15;;;;;;;10.29;92.17;101392.03;5007770;28;20038;-70
2023/05/15 02:53:55;;;;;;;46.92;25.27;;;;;;;10.21;93.26;101389.78;5005856;28;20506;-71
2023/05/15 02:56:21;;;;;;;45.90;23.45;;;;;;;10.19;92.46;101388.09;4987453;28;20034;-71
2023/05/15 02:58:46;;;;;;;49.92;26.00;;;;;;;10.13;93.36;101377.63;4989109;28;20068;-71
2023/05/15 03:01:12;;;;;;;44.15;24.55;;;;;;;10.08;93.78;101375.19;4987668;28;20129;-71
2023/05/15 03:03:37;;;;;;;50.10;25.27;;;;;;;10.04;94.10;101376.34;4988800;28;20041;-71
2023/05/15 03:06:03;;;;;;;41.72;23.10;;;;;;;10.07;92.95;101368.00;4988959;28;20138;-71
2023/05/15 03:08:28;;;;;;;41.20;23.85;;;;;;;10.06;93.01;101373.53;4987801;28;20026;-71
2023/05/15 03:10:53;;;;;;;46.10;24.27;;;;;;;10.02;94.13;101371.94;4988759;28;20034;-71
2023/05/15 03:13:19;;;;;;;46.33;24.73;;;;;;;9.96;94.17;101368.66;4987499;28;20245;-70
2023/05/15 03:15:44;;;;;;;48.17;25.55;;;;;;;9.94;94.00;101369.72;4988635;28;20073;-70
2023/05/15 03:18:10;;;;;;;48.13;25.27;;;;;;;9.90;94.42;101377.19;4987515;28;20034;-71
2023/05/15 03:20:35;;;;;;;47.35;26.40;;;;;;;9.84;95.09;101371.22;4989363;28;20084;-71
2023/05/15 03:23:00;;;;;;;46.72;24.65;;;;;;;9.79;95.06;101363.41;4987384;28;20516;-71
2023/05/15 03:25:26;;;;;;;46.67;24.80;;;;;;;9.78;94.15;101369.78;5000911;28;20034;-71
2023/05/15 03:27:51;;;;;;;44.67;23.88;;;;;;;9.72;95.42;101370.16;5007013;28;20080;-71
2023/05/15 03:30:16;;;;;;;50.50;25.85;;;;;;;9.71;95.47;101360.25;5008523;28;20042;-72
2023/05/15 03:32:42;;;;;;;52.85;25.55;;;;;;;9.64;96.08;101364.31;5005935;28;20389;-71
2023/05/15 03:35:08;;;;;;;53.72;26.92;;;;;;;9.62;95.74;101366.25;4987504;28;20030;-70
2023/05/15 03:37:34;;;;;;;50.70;25.30;;;;;;;9.58;96.44;101354.69;4988362;28;20042;-71
2023/05/15 03:39:59;;;;;;;46.58;24.98;;;;;;;9.54;95.99;101358.56;4988545;28;20065;-71
2023/05/15 03:42:26;;;;;;;55.97;25.50;;;;;;;9.53;96.17;101362.25;4971675;28;20046;-71
2023/05/15 03:44:52;;;;;;;56.28;25.70;;;;;;;9.50;96.84;101353.38;4988681;28;20497;-71
2023/05/15 03:47:17;;;;;;;49.38;24.08;;;;;;;9.47;96.22;101357.19;4988379;28;20035;-72
2023/05/15 03:49:42;;;;;;;49.92;26.70;;;;;;;9.44;96.06;101355.50;4990003;28;20018;-71
2023/05/15 03:52:08;;;;;;;50.40;25.85;;;;;;;9.37;96.38;101343.28;4990665;28;20041;-71
2023/05/15 03:54:34;;;;;;;54.92;26.38;;;;;;;9.38;97.79;101355.00;4992211;28;20038;-71
2023/05/15 03:57:00;;;;;;;44.65;24.55;;;;;;;9.33;96.94;101339.00;4991788;28;20553;-71
2023/05/15 03:59:25;;;;;;;43.35;23.30;;;;;;;9.34;96.10;101350.72;4991197;28;20030;-70
2023/05/15 04:01:50;;;;;;;46.58;23.58;;;;;;;9.36;96.14;101348.78;4991903;28;20189;-71
2023/05/15 04:04:16;;;;;;;48.50;24.13;;;;;;;9.40;95.62;101350.34;4991823;28;20034;-71
2023/05/15 04:06:41;;;;;;;45.63;24.10;;;;;;;9.44;95.18;101344.66;4991965;28;20022;-71
2023/05/15 04:09:07;;;;;;;54.05;23.73;;;;;;;9.46;95.16;101347.25;4991804;28;20042;-71
2023/05/15 04:11:33;;;;;;;50.70;24.35;;;;;;;9.50;95.22;101350.69;4991796;28;20379;-71
2023/05/15 04:14:00;;;;;;;45.08;23.50;;;;;;;9.52;95.47;101348.75;4992420;28;20062;-71
2023/05/15 04:16:25;;;;;;;49.83;23.77;;;;;;;9.55;95.51;101348.56;5007402;28;20109;-70
2023/05/15 04:18:50;;;;;;;51.83;26.77;;;;;;;9.58;95.68;101345.66;4991550;28;20510;-70
2023/05/15 04:21:16;;;;;;;47.33;25.08;;;;;;;9.64;96.19;101348.00;4991809;28;20038;-71
2023/05/15 04:23:41;;;;;;;47.30;24.33;;;;;;;9.69;95.90;101351.31;4990270;28;20054;-71
2023/05/15 04:26:07;;;;;;;52.65;26.48;;;;;;;9.71;96.36;101350.25;4991559;28;20034;-71
2023/05/15 04:28:32;;;;;;;55.85;26.30;;;;;;;9.77;96.36;101359.88;4991788;28;20030;-71
2023/05/15 04:30:58;;;;;;;50.70;26.17;;;;;;;9.81;96.35;101347.00;4991954;28;20034;-71
2023/05/15 04:33:23;;;;;;;54.75;26.95;;;;;;;9.81;97.38;101347.84;4990007;28;20038;-71
2023/05/15 04:35:48;;;;;;;54.22;26.83;;;;;;;9.83;96.88;101358.63;4990289;28;20308;-71
2023/05/15 04:38:14;;;;;;;52.47;25.33;;;;;;;9.84;96.51;101369.41;4989760;28;20060;-71
2023/05/15 04:40:40;;;;;;;53.30;25.08;;;;;;;9.80;98.02;101365.13;4990073;28;20042;-71
2023/05/15 04:43:05;;;;;;;52.97;24.13;;;;;;;9.70;98.82;101372.09;4990189;28;20018;-71
2023/05/15 04:45:30;;;;;;;54.28;24.85;;;;;;;9.61;99.89;101378.09;4991383;28;20035;-71
2023/05/15 04:47:56;;;;;;;56.45;25.60;;;;;;;9.55;99.62;101382.03;4991684;28;20022;-71
2023/05/15 04:50:21;;;;;;;58.08;25.27;;;;;;;9.56;99.76;101377.47;4990994;28;20428;-71
2023/05/15 04:52:47;;;;;;;55.30;25.95;;;;;;;9.64;99.19;101383.31;4998503;28;20153;-71
2023/05/15 04:55:12;;;;;;;56.10;26.40;;;;;;;9.73;98.80;101384.59;4997477;28;20030;-71
2023/05/15 04:57:38;;;;;;;58.55;26.92;;;;;;;9.80;98.12;101383.28;4991278;28;20133;-71
2023/05/15 05:00:11;;;;;;;49.63;24.58;;;;;;;9.92;96.72;101379.81;4989277;28;20042;-71
2023/05/15 05:02:37;;;;;;;55.67;25.65;;;;;;;10.00;97.46;101382.06;5005948;28;20161;-71
2023/05/15 05:05:04;;;;;;;57.28;25.73;;;;;;;9.93;97.53;101370.66;5004868;28;20025;-71
2023/05/15 05:07:29;;;;;;;54.15;24.55;;;;;;;9.99;97.25;101377.59;4993976;28;20038;-70
2023/05/15 05:09:55;;;;;;;43.42;23.40;;;;;;;10.08;96.36;101377.91;4989536;28;20040;-71
2023/05/15 05:12:20;;;;;;;58.85;24.48;;;;;;;10.23;96.10;101386.94;5005600;28;20333;-70
2023/05/15 05:14:45;;;;;;;52.58;25.58;;;;;;;10.37;95.31;101387.00;5005621;28;20048;-71
2023/05/15 05:17:11;;;;;;;49.55;23.67;;;;;;;10.47;95.16;101387.28;5001031;28;20034;-71
2023/05/15 05:19:36;;;;;;;49.53;24.98;;;;;;;10.56;95.31;101392.13;4999437;28;20042;-71
2023/05/15 05:22:04;;;;;;;50.55;24.67;;;;;;;10.60;94.72;101388.25;5007352;28;20026;-71
2023/05/15 05:24:34;;;;;;;49.85;24.10;;;;;;;10.72;93.67;101387.47;4992876;28;20114;-71
2023/05/15 05:27:00;;;;;;;50.00;23.88;;;;;;;10.80;93.64;101377.94;5006838;28;20091;-72
2023/05/15 05:29:25;;;;;;;49.75;23.55;;;;;;;10.94;93.23;101399.69;4992468;28;20422;-71
2023/05/15 05:31:51;;;;;;;45.00;23.10;;;;;;;11.06;93.05;101407.06;5005717;28;20491;-71
2023/05/15 05:34:17;;;;;;;49.40;24.23;;;;;;;11.11;92.18;101404.03;5009860;28;20076;-71
2023/05/15 05:36:43;;;;;;;45.85;23.48;;;;;;;11.19;92.12;101405.28;5005927;28;20042;-71
2023/05/15 05:39:08;;;;;;;43.00;23.05;;;;;;;11.29;91.92;101407.41;5007500;28;20045;-71
2023/05/15 05:41:34;;;;;;;46.08;22.58;;;;;;;11.31;91.77;101411.75;4999027;28;20042;-71
2023/05/15 05:44:00;;;;;;;40.97;23.92;;;;;;;11.30;92.28;101415.44;5005468;28;20046;-71
2023/05/15 05:46:26;;;;;;;40.00;23.20;;;;;;;11.21;91.24;101416.06;4979755;28;20032;-71
2023/05/15 05:48:51;;;;;;;40.85;21.92;;;;;;;11.17;90.65;101423.56;5003886;28;20476;-71
2023/05/15 05:51:16;;;;;;;45.03;21.90;;;;;;;11.13;89.73;101422.00;5009380;28;20026;-71
2023/05/15 05:53:42;;;;;;;43.38;22.30;;;;;;;11.10;89.80;101421.34;4992682;28;20050;-71
2023/05/15 05:56:07;;;;;;;43.58;23.38;;;;;;;11.10;90.43;101414.06;4994929;28;20037;-71
2023/05/15 05:58:33;;;;;;;40.80;22.98;;;;;;;11.15;91.18;101409.19;5017570;28;20042;-72
2023/05/15 06:00:59;;;;;;;44.97;23.13;;;;;;;11.17;90.07;101409.94;5009585;28;20112;-71
2023/05/15 06:03:25;;;;;;;42.42;22.33;;;;;;;11.22;91.46;101415.94;4991486;28;20045;-71
2023/05/15 06:05:52;;;;;;;45.38;23.73;;;;;;;11.31;89.79;101410.88;5002296;28;20096;-71
2023/05/15 06:08:18;;;;;;;39.08;21.08;;;;;;;11.50;90.63;101408.66;4989529;28;20125;-71
2023/05/15 06:10:44;;;;;;;40.55;22.15;;;;;;;11.75;89.41;101416.94;4989448;28;20149;-71
2023/05/15 06:13:10;;;;;;;42.15;21.73;;;;;;;11.85;87.58;101406.31;4988620;28;20031;-71
2023/05/15 06:15:36;;;;;;;35.50;20.25;;;;;;;11.96;87.55;101408.28;5004761;28;20050;-71
2023/05/15 06:18:01;;;;;;;34.03;20.92;;;;;;;11.93;86.63;101414.81;4989059;28;20710;-71
2023/05/15 06:20:27;;;;;;;32.40;20.08;;;;;;;12.04;85.79;101419.53;4989961;28;20326;-71
2023/05/15 06:22:52;;;;;;;42.08;21.75;;;;;;;12.09;86.91;101416.50;4989891;28;21448;-71
2023/05/15 06:25:18;;;;;;;40.38;21.27;;;;;;;12.12;85.80;101421.72;4989326;28;20034;-71
2023/05/15 06:27:43;;;;;;;42.92;21.27;;;;;;;12.27;86.15;101415.22;4989735;28;20389;-72
2023/05/15 06:30:09;;;;;;;38.25;21.75;;;;;;;12.30;85.15;101423.16;5004400;28;20015;-71
2023/05/15 06:32:35;;;;;;;35.00;20.73;;;;;;;12.25;82.90;101420.75;4989295;28;20136;-71
2023/05/15 06:35:01;;;;;;;36.40;20.80;;;;;;;12.18;83.06;101416.72;4988259;28;20073;-71
2023/05/15 06:37:27;;;;;;;39.60;21.60;;;;;;;12.24;84.29;101410.81;4992312;28;20054;-71
2023/05/15 06:39:53;;;;;;;36.83;21.15;;;;;;;12.27;84.54;101414.34;4988846;28;20092;-71
2023/05/15 06:42:18;;;;;;;36.58;21.02;;;;;;;12.30;82.82;101416.84;4989129;28;20062;-72
2023/05/15 06:44:46;;;;;;;35.97;21.92;;;;;;;12.24;82.53;101408.09;4989344;28;20030;-71
2023/05/15 06:47:11;;;;;;;37.28;22.90;;;;;;;12.23;83.57;101406.38;4989222;28;20486;-71
2023/05/15 06:49:36;;;;;;;36.97;22.70;;;;;;;12.24;83.59;101413.56;4989045;28;20113;-71
2023/05/15 06:52:02;;;;;;;41.10;23.60;;;;;;;12.16;83.17;101415.06;4988527;28;20065;-71
2023/05/15 06:54:27;;;;;;;38.60;23.77;;;;;;;12.11;82.97;101409.94;4989315;28;20051;-71
2023/05/15 06:56:53;;;;;;;42.10;24.33;;;;;;;12.13;85.36;101407.13;4988365;28;20026;-71
2023/05/15 06:59:18;;;;;;;39.53;24.42;;;;;;;12.17;84.44;101412.25;4989045;28;20137;-72
2023/05/15 07:01:44;;;;;;;40.33;24.25;;;;;;;12.25;85.03;101411.69;4989002;28;20034;-71
2023/05/15 07:04:09;;;;;;;42.83;25.52;;;;;;;12.44;85.14;101403.94;4994381;28;20042;-72
2023/05/15 07:06:36;;;;;;;41.80;24.52;;;;;;;12.72;84.29;101405.56;4989415;28;20378;-71
2023/05/15 07:09:02;;;;;;;42.15;24.40;;;;;;;12.99;83.54;101405.41;4987424;28;20070;-70
2023/05/15 07:11:28;;;;;;;42.45;24.33;;;;;;;13.25;82.83;101408.13;4989099;28;20064;-71
2023/05/15 07:13:53;;;;;;;43.17;25.10;;;;;;;13.50;79.92;101409.88;4988870;28;20584;-71
2023/05/15 07:16:19;;;;;;;41.28;25.75;;;;;;;13.83;80.45;101406.41;4995539;28;20133;-71
2023/05/15 07:18:44;;;;;;;44.40;24.55;;;;;;;14.03;79.39;101413.06;5008471;28;20109;-71
2023/05/15 07:21:09;;;;;;;45.30;26.30;;;;;;;14.19;78.85;101410.88;4989892;28;20350;-71
2023/05/15 07:23:35;;;;;;;41.53;26.80;;;;;;;14.28;79.48;101406.56;4989462;28;20040;-71
2023/05/15 07:26:13;;;;;;;43.55;26.67;;;;;;;14.27;78.12;101408.44;4992792;28;20053;-72
2023/05/15 07:28:38;;;;;;;42.83;25.98;;;;;;;14.49;77.27;101409.47;4992002;28;20439;-71
2023/05/15 07:31:03;;;;;;;39.55;24.67;;;;;;;14.71;77.38;101406.75;4992585;28;20026;-71
2023/05/15 07:33:29;;;;;;;38.83;25.75;;;;;;;14.70;75.80;101395.94;4992355;28;20030;-71
2023/05/15 07:35:55;;;;;;;38.42;24.65;;;;;;;14.81;75.61;101401.41;5005916;28;20172;-71
2023/05/15 07:38:20;;;;;;;36.13;24.80;;;;;;;14.83;75.69;101402.16;4992200;28;20062;-71
2023/05/15 07:40:45;;;;;;;38.30;25.02;;;;;;;14.63;73.93;101400.16;4992021;28;20356;-71
2023/05/15 07:43:11;;;;;;;41.63;26.70;;;;;;;14.43;77.35;101394.38;5007491;28;20095;-72
2023/05/15 07:45:36;;;;;;;35.30;24.20;;;;;;;14.46;77.08;101391.41;4991128;28;20066;-71
2023/05/15 07:48:18;;;;;;;35.25;24.25;;;;;;;14.45;77.80;101397.84;4992264;28;20030;-71
2023/05/15 07:50:49;;;;;;;40.10;25.65;;;;;;;14.37;74.32;101391.28;4992516;28;20042;-71
2023/05/15 07:53:18;;;;;;;40.40;25.42;;;;;;;14.29;74.60;101400.09;4992398;28;20066;-71
2023/05/15 07:55:44;;;;;;;41.38;25.67;;;;;;;14.29;77.64;101384.53;4991581;28;20441;-71
2023/05/15 07:58:09;;;;;;;38.60;24.73;;;;;;;14.57;76.09;101390.56;4990845;28;20018;-71
2023/05/15 08:00:35;;;;;;;35.53;23.25;;;;;;;14.71;71.96;101386.72;4992087;28;20418;-71
2023/05/15 08:03:01;;;;;;;36.10;22.45;;;;;;;15.04;73.32;101380.34;4991454;28;20045;-71
2023/05/15 08:05:28;;;;;;;38.97;23.27;;;;;;;15.16;69.38;101386.69;4991075;28;20487;-71
2023/05/15 08:07:53;;;;;;;38.38;24.65;;;;;;;15.34;70.94;101393.38;4991578;28;20526;-71
2023/05/15 08:10:21;;;;;;;39.85;25.45;;;;;;;15.62;68.78;101386.44;4991539;28;20279;-71
2023/05/15 08:12:47;;;;;;;38.90;23.98;;;;;;;16.29;70.00;101383.34;4990679;28;20537;-71
2023/05/15 08:15:13;;;;;;;33.55;23.40;;;;;;;16.78;70.42;101387.25;5007282;28;20038;-71
2023/05/15 08:17:38;;;;;;;35.13;24.33;;;;;;;17.37;67.97;101384.69;5011032;28;20501;-72
2023/05/15 08:20:04;;;;;;;41.00;26.08;;;;;;;18.10;68.62;101378.66;5006315;28;20128;-72
2023/05/15 08:22:30;;;;;;;39.60;25.20;;;;;;;18.64;62.15;101380.84;4994257;28;20225;-71
2023/05/15 08:24:56;;;;;;;38.80;25.63;;;;;;;19.05;62.95;101371.25;5006891;28;20601;-71
2023/05/15 08:27:22;;;;;;;40.58;24.02;;;;;;;19.16;59.93;101373.78;5008429;28;20156;-71
2023/05/15 08:29:47;;;;;;;33.85;24.05;;;;;;;19.35;59.42;101387.50;5009980;28;20037;-71
2023/05/15 08:32:13;;;;;;;30.52;22.80;;;;;;;19.16;60.10;101384.81;5009625;28;20737;-71
2023/05/15 08:34:38;;;;;;;35.53;24.38;;;;;;;18.88;56.07;101381.19;5004690;28;20060;-71
2023/05/15 08:37:05;;;;;;;38.60;25.33;;;;;;;18.75;63.43;101376.06;4989352;28;20045;-72
2023/05/15 08:39:30;;;;;;;33.47;24.10;;;;;;;18.93;61.25;101381.63;4989730;28;20042;-72
2023/05/15 08:42:06;;;;;;;37.45;25.33;;;;;;;19.08;62.30;101388.38;4991424;28;20053;-71
2023/05/15 08:44:32;;;;;;;34.60;23.13;;;;;;;19.42;60.37;101386.88;4991933;28;20042;-72
2023/05/15 08:46:58;;;;;;;38.03;25.50;;;;;;;19.65;60.10;101382.66;4991439;28;20073;-72
2023/05/15 08:49:45;;;;;;;36.30;24.30;;;;;;;19.85;61.73;101386.13;4991468;28;20061;-72
2023/05/15 08:52:10;;;;;;;35.67;24.67;;;;;;;19.88;60.80;101383.06;4991094;28;20042;-72
2023/05/15 08:54:37;;;;;;;39.22;26.80;;;;;;;19.99;60.97;101380.03;4991022;28;20023;-72
2023/05/15 08:57:03;;;;;;;36.47;24.65;;;;;;;20.16;58.97;101375.53;4989715;28;20061;-71
2023/05/15 08:59:29;;;;;;;38.63;25.30;;;;;;;20.34;60.09;101378.25;4991385;28;20129;-72
2023/05/15 09:01:55;;;;;;;38.90;26.52;;;;;;;20.59;57.51;101380.16;4989852;28;20114;-72
2023/05/15 09:04:21;;;;;;;38.15;26.77;;;;;;;20.90;57.07;101376.91;5008415;28;20060;-72
2023/05/15 09:06:47;;;;;;;38.92;27.40;;;;;;;21.10;54.46;101370.06;4991307;28;20082;-71
2023/05/15 09:09:12;;;;;;;39.95;27.33;;;;;;;21.21;58.36;101365.25;4990891;28;20038;-72
2023/05/15 09:11:43;;;;;;;41.72;27.83;;;;;;;21.42;58.10;101370.38;4990410;28;20075;-72
2023/05/15 09:14:09;;;;;;;41.58;28.25;;;;;;;21.53;57.11;101381.13;4990856;28;20459;-72
2023/05/15 09:16:35;;;;;;;38.83;27.92;;;;;;;21.29;54.20;101370.81;4990824;28;20039;-72
2023/05/15 09:19:01;;;;;;;36.65;26.75;;;;;;;21.22;54.98;101367.00;4989204;28;20435;-72
2023/05/15 09:21:30;;;;;;;25.33;19.17;;;;;;;21.07;54.84;101373.16;4991439;28;20042;-72
2023/05/15 09:24:19;;;;;;;25.17;17.92;;;;;;;20.69;54.17;101371.75;4990274;28;20022;-72
2023/05/15 09:26:46;;;;;;;23.60;16.42;;;;;;;20.72;53.46;101376.09;4990394;28;20501;-72
2023/05/15 09:29:15;;;;;;;23.23;17.95;;;;;;;20.84;54.12;101367.38;4990367;28;20099;-71
2023/05/15 09:31:40;;;;;;;25.63;17.30;;;;;;;20.77;55.57;101371.81;4990456;28;20282;-72
2023/05/15 09:34:08;;;;;;;30.35;20.88;;;;;;;20.62;55.59;101373.47;4990421;28;20114;-72
2023/05/15 09:36:33;;;;;;;29.10;20.77;;;;;;;20.66;55.40;101368.44;4988489;28;20022;-71
2023/05/15 09:39:00;;;;;;;29.88;20.58;;;;;;;20.48;56.18;101363.00;4990395;28;20482;-72
2023/05/15 09:41:26;;;;;;;27.65;20.33;;;;;;;20.21;56.16;101366.75;4990536;28;20117;-72
2023/05/15 09:43:55;;;;;;;27.27;19.75;;;;;;;20.01;57.28;101374.38;4989890;28;20042;-71
2023/05/15 09:46:21;;;;;;;31.27;20.92;;;;;;;19.77;58.22;101378.66;4989575;28;20035;-71
2023/05/15 09:48:47;;;;;;;31.70;21.67;;;;;;;19.44;59.08;101376.53;4990106;28;20160;-70
2023/05/15 09:51:18;;;;;;;31.95;22.15;;;;;;;19.19;59.36;101370.72;4990088;28;20110;-72
2023/05/15 09:53:54;;;;;;;33.25;23.38;;;;;;;19.19;60.59;101376.25;4989937;28;20077;-71
2023/05/15 09:56:20;;;;;;;34.22;21.95;;;;;;;19.31;60.14;101374.16;4996852;28;20224;-71
2023/05/15 09:58:58;;;;;;;34.10;23.20;;;;;;;19.30;61.40;101380.69;4989585;28;20035;-71
2023/05/15 10:01:24;;;;;;;34.88;24.05;;;;;;;19.27;60.04;101376.34;4997013;28;20425;-71
2023/05/15 10:04:00;;;;;;;32.67;23.75;;;;;;;19.37;61.63;101385.44;4992547;28;20065;-71
2023/05/15 10:06:25;;;;;;;36.55;25.35;;;;;;;19.32;62.71;101382.28;4989860;28;20045;-71
2023/05/15 10:08:54;;;;;;;36.25;24.75;;;;;;;19.30;62.02;101376.03;5018601;28;20030;-72
2023/05/15 10:11:21;;;;;;;35.63;25.73;;;;;;;19.20;61.70;101380.75;4996276;28;20168;-71
2023/05/15 10:13:47;;;;;;;37.65;25.27;;;;;;;19.17;63.41;101380.22;4989829;28;20509;-71
2023/05/15 10:16:13;;;;;;;37.50;25.98;;;;;;;19.00;62.13;101385.50;4989720;28;20077;-71
2023/05/15 10:18:40;;;;;;;32.80;23.88;;;;;;;18.90;63.51;101381.94;4988231;28;20046;-71
2023/05/15 10:21:08;;;;;;;33.42;21.88;;;;;;;18.80;62.82;101393.00;4989293;28;20046;-71
2023/05/15 10:23:36;;;;;;;35.80;25.48;;;;;;;18.68;61.61;101391.41;4989110;28;20038;-71
2023/05/15 10:26:07;;;;;;;41.72;25.50;;;;;;;18.39;62.03;101393.38;4995737;28;20348;-72
2023/05/15 10:28:34;;;;;;;41.25;25.58;;;;;;;18.31;63.12;101388.59;4989379;28;20047;-72
2023/05/15 10:31:01;;;;;;;33.83;23.08;;;;;;;18.35;64.19;101393.69;4989591;28;20038;-72
2023/05/15 10:33:28;;;;;;;30.00;20.48;;;;;;;18.25;63.38;101392.84;4989794;28;20053;-70
2023/05/15 10:35:55;;;;;;;33.25;20.27;;;;;;;18.26;64.33;101388.19;4995525;28;20508;-71
2023/05/15 10:38:21;;;;;;;34.00;24.15;;;;;;;18.22;63.54;101395.00;5006690;28;20314;-71
2023/05/15 10:40:47;;;;;;;38.15;25.80;;;;;;;18.24;64.54;101399.38;4991367;28;20461;-71
2023/05/15 10:43:13;;;;;;;38.72;26.15;;;;;;;18.08;64.04;101388.06;5006717;28;20160;-71
2023/05/15 10:45:38;;;;;;;40.42;24.88;;;;;;;17.83;64.26;101393.16;4995035;28;20111;-71
2023/05/15 10:48:06;;;;;;;37.22;26.02;;;;;;;17.57;65.70;101400.19;4990799;28;20049;-71
2023/05/15 10:50:32;;;;;;;36.85;26.23;;;;;;;17.31;66.25;101400.75;5008713;28;20018;-71
2023/05/15 10:52:57;;;;;;;38.10;25.65;;;;;;;17.19;67.71;101390.84;5008749;28;20121;-71
2023/05/15 10:55:22;;;;;;;41.35;25.55;;;;;;;17.27;67.44;101385.53;4994841;28;20217;-71
2023/05/15 10:57:48;;;;;;;41.55;25.52;;;;;;;17.38;68.31;101392.78;5006126;28;20478;-72
2023/05/15 11:00:27;;;;;;;39.35;25.67;;;;;;;17.56;68.37;101388.31;5006199;28;20417;-71
2023/05/15 11:02:55;;;;;;;35.75;23.83;;;;;;;17.70;66.59;101388.91;4997388;28;20037;-71
2023/05/15 11:05:21;;;;;;;35.58;23.35;;;;;;;17.79;66.30;101397.22;5008687;28;20037;-70
2023/05/15 11:08:16;;;;;;;38.58;26.95;;;;;;;17.82;66.59;101391.44;5008358;28;20132;-70
2023/05/15 11:10:42;;;;;;;38.65;27.00;;;;;;;17.56;65.21;101393.81;4993319;28;20121;-71